createdAt,value
2022-10-18T00:00:33.515Z,100.00
2022-10-18T00:03:37.337Z,100.00
2022-10-18T00:06:43.422Z,100.00
2022-10-18T00:09:46.446Z,100.00
2022-10-18T00:12:50.684Z,100.00
2022-10-18T00:15:56.239Z,100.00
2022-10-18T00:18:59.166Z,100.00
2022-10-18T00:22:02.792Z,100.00
2022-10-18T00:25:07.455Z,100.00
2022-10-18T00:28:11.522Z,100.00
2022-10-18T00:31:16.304Z,100.00
2022-10-18T00:34:19.093Z,100.00
2022-10-18T00:37:21.819Z,100.00
2022-10-18T00:40:24.685Z,99.95
2022-10-18T00:43:28.809Z,98.97
2022-10-18T00:46:34.735Z,98.91
2022-10-18T00:49:40.911Z,98.94
2022-10-18T00:52:47.042Z,98.87
2022-10-18T00:55:50.359Z,99.20
2022-10-18T00:58:55.297Z,99.56
2022-10-18T01:01:58.334Z,100.00
2022-10-18T01:05:01.037Z,100.00
2022-10-18T01:08:36.347Z,99.89
2022-10-18T01:12:10.133Z,100.00
2022-10-18T01:15:24.404Z,100.00
2022-10-18T01:18:33.348Z,100.00
2022-10-18T01:21:44.051Z,100.00
2022-10-18T01:25:07.259Z,100.00
2022-10-18T01:28:25.353Z,100.00
2022-10-18T01:31:34.030Z,100.00
2022-10-18T01:34:39.795Z,100.00
2022-10-18T01:37:46.279Z,100.00
2022-10-18T01:40:52.172Z,100.00
2022-10-18T01:43:59.032Z,100.00
2022-10-18T01:47:06.154Z,100.00
2022-10-18T01:50:09.690Z,100.00
2022-10-18T01:53:30.913Z,100.00
2022-10-18T01:56:40.657Z,100.00
2022-10-18T01:59:53.010Z,100.00
2022-10-18T02:03:02.763Z,100.00
2022-10-18T02:06:11.353Z,100.00
2022-10-18T02:09:20.337Z,100.00
2022-10-18T02:12:24.389Z,100.00
2022-10-18T02:15:31.032Z,100.00
2022-10-18T02:18:41.150Z,100.00
2022-10-18T02:21:46.806Z,100.00
2022-10-18T02:24:54.278Z,100.00
2022-10-18T02:27:57.679Z,100.00
2022-10-18T02:31:07.522Z,100.00
2022-10-18T02:34:18.456Z,100.00
2022-10-18T02:37:21.970Z,100.00
2022-10-18T02:40:27.407Z,100.00
2022-10-18T02:43:30.134Z,100.00
2022-10-18T02:46:34.892Z,100.00
2022-10-18T02:49:39.706Z,100.00
2022-10-18T02:52:42.683Z,100.00
2022-10-18T02:55:45.427Z,100.00
2022-10-18T02:58:48.102Z,100.00
2022-10-18T03:01:51.219Z,100.00
2022-10-18T03:04:55.623Z,100.00
2022-10-18T03:07:59.195Z,100.00
2022-10-18T03:11:02.471Z,100.00
2022-10-18T03:14:05.135Z,100.00
2022-10-18T03:17:08.225Z,100.00
2022-10-18T03:20:14.025Z,100.00
2022-10-18T03:23:16.730Z,100.00
2022-10-18T03:26:21.453Z,100.00
2022-10-18T03:29:24.318Z,99.75
2022-10-18T03:32:27.113Z,99.34
2022-10-18T03:35:31.243Z,99.29
2022-10-18T03:38:34.018Z,99.44
2022-10-18T03:41:36.890Z,99.04
2022-10-18T03:44:39.649Z,98.71
2022-10-18T03:47:42.711Z,98.00
2022-10-18T03:50:47.206Z,98.10
2022-10-18T03:53:50.214Z,97.94
2022-10-18T03:56:52.937Z,98.18
2022-10-18T03:59:55.879Z,98.38
2022-10-18T04:02:58.906Z,98.34
2022-10-18T04:06:03.689Z,97.85
2022-10-18T04:09:09.476Z,97.98
2022-10-18T04:12:13.354Z,98.32
2022-10-18T04:15:17.069Z,98.64
2022-10-18T04:18:20.171Z,98.83
2022-10-18T04:21:24.248Z,98.72
2022-10-18T04:24:27.078Z,98.54
2022-10-18T04:27:30.378Z,97.93
2022-10-18T04:30:33.585Z,98.21
2022-10-18T04:33:36.503Z,98.31
2022-10-18T04:36:41.465Z,98.62
2022-10-18T04:39:49.921Z,98.74
2022-10-18T04:42:55.982Z,99.17
2022-10-18T04:45:59.201Z,99.45
2022-10-18T04:49:03.061Z,99.59
2022-10-18T04:52:07.880Z,99.74
2022-10-18T04:55:11.265Z,100.00
2022-10-18T04:58:14.202Z,100.00
2022-10-18T05:01:18.890Z,99.88
2022-10-18T05:04:21.676Z,100.00
2022-10-18T05:07:25.686Z,100.00
2022-10-18T05:10:28.322Z,100.00
2022-10-18T05:13:31.398Z,99.93
2022-10-18T05:16:34.255Z,99.98
2022-10-18T05:19:36.902Z,100.00
2022-10-18T05:22:41.021Z,100.00
2022-10-18T05:25:44.264Z,100.00
2022-10-18T05:28:46.909Z,99.96
2022-10-18T05:31:49.736Z,99.57
2022-10-18T05:34:52.401Z,99.46
2022-10-18T05:37:56.408Z,98.92
2022-10-18T05:40:59.388Z,98.41
2022-10-18T05:44:04.614Z,98.40
2022-10-18T05:47:07.211Z,96.49
2022-10-18T05:50:10.713Z,95.17
2022-10-18T05:53:35.157Z,94.55
2022-10-18T05:59:45.286Z,93.31
2022-10-18T06:02:47.909Z,93.10
2022-10-18T06:05:50.958Z,93.35
2022-10-18T06:08:54.972Z,94.10
2022-10-18T06:11:57.880Z,94.29
2022-10-18T06:15:00.512Z,93.85
2022-10-18T06:18:03.162Z,90.82
2022-10-18T06:21:06.424Z,89.81
2022-10-18T06:24:10.962Z,87.81
2022-10-18T06:27:13.844Z,87.77
2022-10-18T06:30:16.623Z,87.34
2022-10-18T06:33:19.247Z,86.40
2022-10-18T06:36:22.990Z,82.48
2022-10-18T06:39:27.342Z,81.25
2022-10-18T06:42:30.190Z,80.72
2022-10-18T06:45:33.755Z,80.71
2022-10-18T06:48:37.725Z,80.44
2022-10-18T06:51:40.357Z,80.62
2022-10-18T06:54:45.531Z,81.16
2022-10-18T06:57:48.322Z,82.00
2022-10-18T07:00:50.953Z,82.71
2022-10-18T07:03:54.604Z,83.03
2022-10-18T07:06:57.481Z,83.59
2022-10-18T07:10:01.500Z,84.43
2022-10-18T07:13:27.376Z,85.96
2022-10-18T07:16:26.786Z,85.75
2022-10-18T07:19:29.489Z,85.57
2022-10-18T07:22:33.977Z,85.05
2022-10-18T07:25:37.971Z,84.98
2022-10-18T07:28:40.758Z,85.23
2022-10-18T07:31:43.402Z,85.00
2022-10-18T07:34:46.077Z,84.76
2022-10-18T07:37:48.702Z,84.98
2022-10-18T07:40:58.130Z,84.69
2022-10-18T07:44:01.705Z,84.39
2022-10-18T07:47:04.330Z,84.68
2022-10-18T07:50:08.039Z,84.25
2022-10-18T07:53:10.659Z,83.70
2022-10-18T07:56:16.823Z,83.48
2022-10-18T07:59:19.609Z,83.06
2022-10-18T08:02:22.272Z,83.20
2022-10-18T08:05:25.585Z,83.26
2022-10-18T08:08:28.682Z,82.33
2022-10-18T08:11:32.713Z,82.32
2022-10-18T08:14:35.382Z,81.93
2022-10-18T08:17:38.018Z,81.92
2022-10-18T08:20:44.217Z,82.20
2022-10-18T08:23:46.969Z,82.26
2022-10-18T08:26:51.440Z,82.46
2022-10-18T08:29:54.471Z,82.32
2022-10-18T08:32:57.188Z,82.24
2022-10-18T08:36:01.791Z,81.50
2022-10-18T08:39:04.774Z,80.62
2022-10-18T08:42:22.039Z,81.35
2022-10-18T08:45:40.978Z,81.60
2022-10-18T08:48:49.325Z,82.13
2022-10-18T08:51:52.772Z,81.96
2022-10-18T08:55:02.482Z,82.13
2022-10-18T08:58:17.104Z,80.41
2022-10-18T09:01:29.667Z,80.39
2022-10-18T09:04:45.958Z,79.03
2022-10-18T09:08:12.665Z,77.80
2022-10-18T09:11:30.611Z,77.21
2022-10-18T09:15:01.286Z,78.42
2022-10-18T09:18:18.986Z,73.78
2022-10-18T09:21:25.834Z,74.54
2022-10-18T09:24:38.676Z,74.02
2022-10-18T09:27:51.001Z,75.29
2022-10-18T09:31:02.482Z,74.78
2022-10-18T09:34:10.182Z,74.55
2022-10-18T09:37:15.464Z,75.96
2022-10-18T09:40:22.864Z,76.72
2022-10-18T09:43:39.942Z,78.71
2022-10-18T09:46:55.576Z,78.73
2022-10-18T09:50:07.249Z,78.94
2022-10-18T09:53:35.229Z,78.28
2022-10-18T10:00:18.815Z,75.02
2022-10-18T10:03:31.946Z,73.64
2022-10-18T10:06:54.072Z,72.18
2022-10-18T10:10:16.801Z,71.00
2022-10-18T10:13:39.048Z,70.37
2022-10-18T10:16:55.761Z,69.15
2022-10-18T10:20:11.354Z,70.15
2022-10-18T10:23:26.525Z,69.90
2022-10-18T10:26:43.111Z,70.71
2022-10-18T10:30:07.662Z,70.49
2022-10-18T10:33:36.933Z,71.16
2022-10-18T10:40:28.921Z,70.48
2022-10-18T10:43:42.656Z,69.69
2022-10-18T10:47:02.279Z,71.45
2022-10-18T10:50:18.414Z,72.41
2022-10-18T10:53:52.614Z,73.70
2022-10-18T10:57:04.478Z,73.15
2022-10-18T11:00:36.374Z,71.52
2022-10-18T11:03:51.428Z,72.69
2022-10-18T11:07:07.075Z,72.98
2022-10-18T11:10:21.596Z,71.74
2022-10-18T11:13:43.460Z,72.85
2022-10-18T11:17:08.164Z,71.93
2022-10-18T11:20:42.722Z,69.84
2022-10-18T11:24:03.239Z,70.33
2022-10-18T11:27:25.045Z,70.85
2022-10-18T11:30:59.878Z,68.82
2022-10-18T11:34:22.541Z,67.84
2022-10-18T11:37:56.856Z,68.22
2022-10-18T11:41:25.284Z,67.30
2022-10-18T11:45:06.201Z,68.69
2022-10-18T11:56:13.309Z,71.15
2022-10-18T11:59:43.789Z,70.67
2022-10-18T12:03:20.462Z,72.04
2022-10-18T12:06:36.051Z,71.08
2022-10-18T12:13:05.118Z,69.09
2022-10-18T12:16:45.591Z,67.74
2022-10-18T12:20:02.039Z,67.09
2022-10-18T12:23:13.318Z,67.03
2022-10-18T12:26:27.575Z,68.26
2022-10-18T12:29:57.104Z,67.98
2022-10-18T12:33:27.302Z,68.16
2022-10-18T12:40:23.905Z,67.94
2022-10-18T12:43:35.373Z,69.08
2022-10-18T12:47:00.863Z,70.53
2022-10-18T12:50:31.379Z,71.56
2022-10-18T12:53:43.907Z,71.95
2022-10-18T12:56:58.598Z,70.59
2022-10-18T13:00:33.900Z,69.95
2022-10-18T13:04:14.400Z,67.94
2022-10-18T13:07:49.769Z,69.05
2022-10-18T13:11:33.324Z,67.33
2022-10-18T13:15:24.758Z,68.19
2022-10-18T13:18:46.686Z,67.58
2022-10-18T13:22:09.810Z,68.88
2022-10-18T13:25:38.973Z,69.11
2022-10-18T13:29:13.741Z,67.84
2022-10-18T13:32:37.099Z,68.35
2022-10-18T13:36:02.066Z,70.40
2022-10-18T13:39:29.355Z,68.87
2022-10-18T13:42:40.549Z,68.68
2022-10-18T13:54:02.232Z,71.75
2022-10-18T13:57:24.384Z,72.77
2022-10-18T14:00:52.491Z,72.34
2022-10-18T14:04:33.359Z,71.83
2022-10-18T14:07:45.243Z,71.86
2022-10-18T14:11:10.681Z,70.57
2022-10-18T14:14:31.183Z,72.30
2022-10-18T14:17:47.178Z,73.50
2022-10-18T14:21:14.039Z,75.31
2022-10-18T14:24:28.873Z,75.79
2022-10-18T14:27:44.790Z,77.01
2022-10-18T14:31:25.486Z,77.62
2022-10-18T14:34:48.673Z,78.47
2022-10-18T14:38:06.267Z,78.25
2022-10-18T14:41:28.808Z,79.63
2022-10-18T14:44:54.406Z,79.93
2022-10-18T14:48:27.731Z,79.39
2022-10-18T14:51:43.868Z,79.81
2022-10-18T14:55:03.512Z,80.31
2022-10-18T14:58:19.726Z,78.82
2022-10-18T15:01:42.494Z,79.91
2022-10-18T15:05:02.360Z,79.94
2022-10-18T15:08:12.889Z,79.80
2022-10-18T15:11:31.304Z,79.92
2022-10-18T15:14:46.219Z,79.92
2022-10-18T15:17:55.620Z,80.96
2022-10-18T15:21:33.648Z,81.19
2022-10-18T15:24:51.632Z,82.24
2022-10-18T15:28:03.788Z,81.99
2022-10-18T15:31:31.918Z,81.98
2022-10-18T15:34:39.160Z,82.10
2022-10-18T15:37:56.541Z,81.69
2022-10-18T15:41:10.714Z,81.69
2022-10-18T15:44:27.273Z,82.14
2022-10-18T15:47:41.832Z,83.11
2022-10-18T15:50:55.126Z,83.46
2022-10-18T15:54:11.980Z,83.48
2022-10-18T15:57:24.022Z,83.12
2022-10-18T16:00:38.438Z,82.97
2022-10-18T16:04:00.250Z,83.15
2022-10-18T16:07:23.458Z,82.81
2022-10-18T16:10:34.462Z,83.58
2022-10-18T16:14:00.559Z,84.53
2022-10-18T16:17:29.543Z,85.28
2022-10-18T16:24:34.484Z,85.80
2022-10-18T16:27:57.935Z,86.23
2022-10-18T16:31:17.102Z,86.08
2022-10-18T16:34:35.297Z,87.18
2022-10-18T16:37:50.872Z,86.74
2022-10-18T16:41:04.034Z,86.81
2022-10-18T16:44:18.534Z,88.31
2022-10-18T16:47:28.611Z,89.52
2022-10-18T16:50:44.034Z,90.15
2022-10-18T16:57:35.772Z,91.09
2022-10-18T17:00:54.575Z,91.45
2022-10-18T17:04:17.657Z,91.96
2022-10-18T17:07:29.507Z,92.13
2022-10-18T17:10:50.838Z,92.25
2022-10-18T17:14:12.108Z,92.49
2022-10-18T17:17:26.911Z,92.29
2022-10-18T17:20:46.220Z,92.67
2022-10-18T17:23:55.133Z,92.77
2022-10-18T17:30:46.166Z,93.36
2022-10-18T17:34:05.599Z,93.66
2022-10-18T17:37:29.728Z,92.87
2022-10-18T17:48:49.222Z,92.99
2022-10-18T17:52:34.095Z,93.09
2022-10-18T17:56:28.996Z,92.91
2022-10-18T17:59:47.502Z,92.78
2022-10-18T18:02:59.084Z,93.13
2022-10-18T18:06:19.096Z,93.66
2022-10-18T18:09:28.498Z,93.95
2022-10-18T18:12:35.514Z,94.15
2022-10-18T18:15:48.379Z,94.82
2022-10-18T18:18:58.368Z,95.72
2022-10-18T18:22:09.906Z,96.60
2022-10-18T18:25:18.240Z,96.76
2022-10-18T18:28:23.313Z,96.51
2022-10-18T18:31:34.394Z,96.88
2022-10-18T18:34:49.313Z,96.43
2022-10-18T18:37:59.301Z,96.27
2022-10-18T18:41:15.284Z,95.88
2022-10-18T18:44:22.676Z,95.44
2022-10-18T18:47:31.684Z,95.13
2022-10-18T18:50:52.391Z,94.93
2022-10-18T18:53:59.587Z,95.21
2022-10-18T18:57:06.996Z,95.38
2022-10-18T19:00:22.024Z,95.78
2022-10-18T19:03:32.142Z,95.93
2022-10-18T19:06:50.300Z,96.03
2022-10-18T19:10:03.928Z,96.64
2022-10-18T19:13:12.198Z,96.71
2022-10-18T19:16:25.190Z,96.90
2022-10-18T19:19:34.832Z,96.40
2022-10-18T19:22:42.214Z,96.06
2022-10-18T19:25:48.991Z,95.65
2022-10-18T19:28:59.998Z,96.10
2022-10-18T19:32:08.158Z,96.16
2022-10-18T19:35:24.887Z,96.35
2022-10-18T19:38:33.010Z,96.58
2022-10-18T19:41:39.193Z,97.05
2022-10-18T19:44:49.662Z,96.85
2022-10-18T19:47:56.559Z,97.11
2022-10-18T19:51:09.515Z,97.36
2022-10-18T19:54:20.032Z,97.57
2022-10-18T19:57:28.365Z,97.79
2022-10-18T20:00:47.386Z,97.58
2022-10-18T20:03:53.973Z,97.00
2022-10-18T20:07:03.231Z,97.57
2022-10-18T20:10:10.077Z,97.28
2022-10-18T20:13:16.265Z,97.91
2022-10-18T20:16:41.453Z,97.81
2022-10-18T20:32:25.088Z,96.46
2022-10-18T20:35:35.829Z,96.67
2022-10-18T20:38:47.923Z,97.63
2022-10-18T20:41:57.671Z,98.70
2022-10-18T20:45:08.182Z,98.44
2022-10-18T20:48:30.488Z,97.50
2022-10-18T20:51:49.966Z,97.24
2022-10-18T20:54:58.682Z,96.98
2022-10-18T20:58:04.386Z,96.71
2022-10-18T21:01:12.900Z,96.77
2022-10-18T21:04:38.843Z,97.42
2022-10-18T21:08:10.224Z,97.96
2022-10-18T21:11:18.060Z,97.44
2022-10-18T21:14:27.219Z,97.00
2022-10-18T21:17:38.680Z,97.04
2022-10-18T21:20:49.289Z,97.52
2022-10-18T21:24:05.366Z,99.53
2022-10-18T21:27:19.331Z,99.80
2022-10-18T21:30:34.225Z,98.89
2022-10-18T21:33:46.307Z,97.89
2022-10-18T21:36:56.379Z,97.98
2022-10-18T21:40:06.155Z,98.51
2022-10-18T21:43:11.270Z,98.57
2022-10-18T21:46:15.307Z,97.60
2022-10-18T21:49:19.330Z,97.62
2022-10-18T21:52:23.293Z,97.00
2022-10-18T21:55:26.033Z,96.84
2022-10-18T21:58:30.097Z,96.58
2022-10-18T22:01:34.510Z,96.08
2022-10-18T22:04:37.222Z,95.67
2022-10-18T22:07:41.185Z,96.16
2022-10-18T22:10:43.866Z,96.75
2022-10-18T22:14:01.373Z,96.85
2022-10-18T22:17:04.012Z,96.63
2022-10-18T22:20:07.826Z,96.72
2022-10-18T22:23:12.892Z,96.54
2022-10-18T22:26:17.880Z,96.70
2022-10-18T22:29:22.368Z,96.76
2022-10-18T22:32:25.297Z,96.70
2022-10-18T22:35:27.922Z,96.64
2022-10-18T22:38:35.185Z,96.79
2022-10-18T22:41:37.893Z,96.94
2022-10-18T22:44:40.589Z,97.38
2022-10-18T22:47:43.194Z,97.49
2022-10-18T22:50:45.842Z,97.70
2022-10-18T22:53:49.908Z,98.47
2022-10-18T22:56:52.560Z,98.64
2022-10-18T22:59:55.174Z,98.54
2022-10-18T23:02:57.759Z,99.28
2022-10-18T23:06:00.989Z,99.08
2022-10-18T23:09:07.386Z,98.77
2022-10-18T23:12:09.979Z,98.33
2022-10-18T23:15:12.721Z,98.19
2022-10-18T23:18:15.369Z,97.52
2022-10-18T23:21:17.989Z,97.64
2022-10-18T23:24:22.014Z,97.66
2022-10-18T23:27:24.617Z,98.06
2022-10-18T23:30:27.265Z,98.44
2022-10-18T23:33:30.294Z,98.55
2022-10-18T23:36:33.802Z,98.38
2022-10-18T23:39:38.224Z,97.86
2022-10-18T23:42:40.841Z,98.39
2022-10-18T23:45:43.537Z,99.16
2022-10-18T23:48:46.672Z,98.58
2022-10-18T23:51:49.297Z,98.09
2022-10-18T23:54:53.282Z,97.82
2022-10-18T23:57:55.893Z,97.27
